• Join FlightAware (Why Join?)
  • Login
  • US Flag 
02:35PM EDT


 

Airport Tracker/Info


-or-


 

Live Flight TrackerFlight Track Log ✈ JBU56 ✈ 22-Jul-2013 ✈ KIAD - KBOS

Flight Track Log - Related Links

Times and Time Zones

All times are in EDT time to prevent confusion due to time zone crossing. See the JBU56 flight status page for this flight to view local times or setup timezone preferences in your user account.

Time Position Orientation Groundspeed Altitude Reporting Facility
EDT Latitude Longitude Course Direction KTS MPH feet Rate Location/Type
09:16AM 38.9500 -77.5000 90° East 162 186 1,200  Level Potomac TRACON
09:18AM 39.0328 -77.5583 331° Northwest 239 275 4,000 2,040 Climbing Washington Center
09:19AM 39.0290 -76.9570 77° East  Level FlightAware Approximate
09:19AM 39.0981 -77.5147 27° Northeast 255 293 7,000  Level Washington Center
09:20AM 39.0509 -76.8279 78° East  Level FlightAware Approximate
09:20AM 39.1678 -77.4631 30° Northeast 260 299 9,800  Level Washington Center
09:21AM 39.0667 -76.6979 90° East  Level FlightAware Approximate
09:21AM 39.2336 -77.3814 44° Northeast 280 322 10,000  Level Washington Center
09:22AM 39.1850 -77.2758 121° Southeast 228 262 10,000  Level Washington Center
09:23AM 39.1153 -77.1914 137° Southeast 269 310 10,000 960 Level Washington Center
09:24AM 39.0858 -77.0622 106° East 337 388 12,000 2,160 Climbing Washington Center
09:25AM 39.0936 -76.9289 86° East 342 394 14,300 2,160 Climbing Washington Center
09:26AM 39.1056 -76.7872 84° East 368 423 16,300 1,980 Climbing Washington Center
09:27AM 39.1172 -76.6403 84° East 394 453 18,400 1,380 Climbing Washington Center
09:28AM 39.1289 -76.4933 84° East 410 472 19,200 1,200 Climbing Washington Center
09:29AM 39.1403 -76.3408 84° East 416 479 20,800 1,260 Climbing Washington Center
09:30AM 39.1536 -76.1831 84° East 428 493 21,800 1,080 Climbing Washington Center
09:31AM 39.1711 -76.0306 82° East 434 499 23,000 600 Climbing Washington Center
09:32AM 39.2006 -75.8781 76° East 434 499 23,000 300 Level Washington Center
09:33AM 39.2800 -75.7711 46° Northeast 421 484 23,700 480 Climbing Washington Center
09:34AM 39.3781 -75.6453 45° Northeast 433 498 24,000 540 Climbing Washington Center
09:35AM 39.4572 -75.5431 45° Northeast 443 510 24,900 480 Climbing Washington Center
09:36AM 39.5531 -75.4139 46° Northeast 443 510 25,000 660 Climbing Washington Center
09:38AM 39.7317 -75.1653 47° Northeast 454 522 27,000 720 Climbing Washington Center
09:38AM 39.7797 -75.0983 47° Northeast 470 541 27,000 300 Level New York Center
09:39AM 39.8589 -74.9869 47° Northeast 478 550 27,500 960 Climbing New York Center
09:40AM 39.9489 -74.8597 47° Northeast 478 550 28,900 720 Climbing New York Center
09:41AM 40.0497 -74.7164 47° Northeast 484 557 29,000  Climbing New York Center
09:43AM 40.1198 -74.6079 50° Northeast  Level FlightAware Approximate
09:43AM 40.2350 -74.4631 50° Northeast 479 551 29,000  Level New York Center
09:44AM 40.3428 -74.3519 38° Northeast 484 557 29,000  Level New York Center
09:45AM 40.4442 -74.2344 41° Northeast 484 557 29,000 -60 Level New York Center
09:47AM 40.5911 -74.0033 50° Northeast 515 593 28,900 -540 Descending Boston Center
09:48AM 40.6661 -73.8519 57° Northeast 502 578 27,600 -1,320 Descending Boston Center
09:49AM 40.7386 -73.6972 58° Northeast 495 570 26,300 -1,320 Descending Boston Center
09:50AM 40.8092 -73.5450 58° Northeast 490 564 25,000 -1,200 Descending Boston Center
09:51AM 40.8853 -73.4064 54° Northeast 484 557 24,000 -900 Descending Boston Center
09:52AM 40.9717 -73.2786 48° Northeast 470 541 23,200 -540 Descending Boston Center
09:53AM 41.0539 -73.1531 49° Northeast 457 526 23,000 -120 Descending Boston Center
09:54AM 41.1381 -73.0244 49° Northeast 457 526 23,000  Level Boston Center
09:55AM 41.2200 -72.8981 49° Northeast 457 526 23,000  Level Boston Center
09:56AM 41.2786 -72.7633 60° Northeast 459 528 23,000  Level Boston Center
09:57AM 41.3333 -72.6086 65° Northeast 459 528 23,000  Level Boston Center
09:58AM 41.3897 -72.4539 64° Northeast 459 528 23,000 -180 Level Boston Center
09:59AM 41.4436 -72.3017 65° Northeast 459 528 22,700 -1,500 Descending Boston Center
10:00AM 41.5039 -72.1408 63° Northeast 442 509 20,100 -2,400 Descending Boston Center
10:01AM 41.5533 -72.0103 63° Northeast 442 509 17,900 -2,280 Descending Boston Center
10:02AM 41.6006 -71.8489 69° East 424 488 15,600 -2,100 Descending Boston Center
10:03AM 41.6375 -71.7261 68° East 406 467 13,700 -2,040 Descending Boston Center
10:04AM 41.6781 -71.5814 69° East 385 443 11,600 -1,380 Descending Boston Center
10:05AM 41.7106 -71.4722 68° East 366 421 11,000 -300 Descending Boston Center
10:06AM 41.7661 -71.3769 52° Northeast 312 359 11,000  Level Boston Center
10:07AM 41.8256 -71.2950 46° Northeast 293 337 11,000 -360 Level Boston Center
10:08AM 41.8917 -71.2269 37° Northeast 298 343 10,300 -1,440 Descending Boston Center
10:10AM 42.0333 -71.1667 18° North 290 334 7,100 -1,680 Descending KA90
10:11AM 42.1000 -71.1333 20° North 238 274 5,700 -1,560 Descending KA90
10:12AM 42.1500 -71.1000 26° Northeast 236 272 4,000 -1,320 Descending KA90
10:14AM 42.2667 -71.0500 18° North 207 238 1,800 -1,080 Descending KA90
10:15AM 42.3167 -71.0333 14° North 158 182 900 -900 Descending KA90